sensor_id;sensor_type;location;lat;lon;timestamp;P1;durP1;ratioP1;P2;durP2;ratioP2
20365;SDS011;10341;49.894;8.822;2022-08-21T00:00:55;5.55;;;4.18;;
20365;SDS011;10341;49.894;8.822;2022-08-21T00:06:14;6.83;;;4.70;;
20365;SDS011;10341;49.894;8.822;2022-08-21T00:11:34;5.93;;;4.32;;
20365;SDS011;10341;49.894;8.822;2022-08-21T00:16:55;8.23;;;4.68;;
20365;SDS011;10341;49.894;8.822;2022-08-21T00:22:15;6.22;;;4.20;;
20365;SDS011;10341;49.894;8.822;2022-08-21T00:27:34;5.60;;;4.43;;
20365;SDS011;10341;49.894;8.822;2022-08-21T00:32:54;5.25;;;4.20;;
20365;SDS011;10341;49.894;8.822;2022-08-21T00:38:14;6.78;;;4.90;;
20365;SDS011;10341;49.894;8.822;2022-08-21T00:43:34;8.73;;;5.35;;
20365;SDS011;10341;49.894;8.822;2022-08-21T00:48:55;7.22;;;5.30;;
20365;SDS011;10341;49.894;8.822;2022-08-21T00:54:15;9.10;;;5.28;;
20365;SDS011;10341;49.894;8.822;2022-08-21T00:59:36;6.47;;;5.15;;
20365;SDS011;10341;49.894;8.822;2022-08-21T01:04:56;7.82;;;4.93;;
20365;SDS011;10341;49.894;8.822;2022-08-21T01:10:16;7.82;;;4.65;;
20365;SDS011;10341;49.894;8.822;2022-08-21T01:15:38;8.07;;;4.93;;
20365;SDS011;10341;49.894;8.822;2022-08-21T01:21:02;7.72;;;5.05;;
20365;SDS011;10341;49.894;8.822;2022-08-21T01:26:27;6.45;;;4.85;;
20365;SDS011;10341;49.894;8.822;2022-08-21T01:31:48;7.05;;;5.10;;
20365;SDS011;10341;49.894;8.822;2022-08-21T01:37:08;6.53;;;4.67;;
20365;SDS011;10341;49.894;8.822;2022-08-21T01:42:28;6.40;;;5.15;;
20365;SDS011;10341;49.894;8.822;2022-08-21T01:47:47;7.85;;;5.18;;
20365;SDS011;10341;49.894;8.822;2022-08-21T01:53:06;7.38;;;5.57;;
20365;SDS011;10341;49.894;8.822;2022-08-21T01:58:26;7.83;;;5.30;;
20365;SDS011;10341;49.894;8.822;2022-08-21T02:03:45;10.52;;;5.53;;
20365;SDS011;10341;49.894;8.822;2022-08-21T02:09:05;6.97;;;5.40;;
20365;SDS011;10341;49.894;8.822;2022-08-21T02:14:26;10.15;;;6.40;;
20365;SDS011;10341;49.894;8.822;2022-08-21T02:19:45;9.32;;;5.72;;
20365;SDS011;10341;49.894;8.822;2022-08-21T02:25:05;9.45;;;6.05;;
20365;SDS011;10341;49.894;8.822;2022-08-21T02:30:32;8.27;;;5.53;;
20365;SDS011;10341;49.894;8.822;2022-08-21T02:35:53;10.68;;;5.65;;
20365;SDS011;10341;49.894;8.822;2022-08-21T02:41:14;10.55;;;6.72;;
20365;SDS011;10341;49.894;8.822;2022-08-21T02:46:36;10.32;;;6.30;;
20365;SDS011;10341;49.894;8.822;2022-08-21T02:51:54;7.43;;;4.97;;
20365;SDS011;10341;49.894;8.822;2022-08-21T02:57:13;8.38;;;5.78;;
20365;SDS011;10341;49.894;8.822;2022-08-21T03:02:33;7.28;;;5.32;;
20365;SDS011;10341;49.894;8.822;2022-08-21T03:07:53;9.23;;;5.68;;
20365;SDS011;10341;49.894;8.822;2022-08-21T03:13:14;8.10;;;5.30;;
20365;SDS011;10341;49.894;8.822;2022-08-21T03:18:33;10.00;;;5.90;;
20365;SDS011;10341;49.894;8.822;2022-08-21T03:23:53;7.78;;;5.93;;
20365;SDS011;10341;49.894;8.822;2022-08-21T03:29:13;7.88;;;6.30;;
20365;SDS011;10341;49.894;8.822;2022-08-21T03:34:32;10.02;;;6.45;;
20365;SDS011;10341;49.894;8.822;2022-08-21T03:39:51;10.00;;;6.85;;
20365;SDS011;10341;49.894;8.822;2022-08-21T03:45:10;10.33;;;6.67;;
20365;SDS011;10341;49.894;8.822;2022-08-21T03:50:31;8.20;;;6.10;;
20365;SDS011;10341;49.894;8.822;2022-08-21T03:55:52;7.57;;;5.88;;
20365;SDS011;10341;49.894;8.822;2022-08-21T04:01:12;7.83;;;5.73;;
20365;SDS011;10341;49.894;8.822;2022-08-21T04:06:32;8.40;;;6.20;;
20365;SDS011;10341;49.894;8.822;2022-08-21T04:11:51;9.20;;;6.13;;
20365;SDS011;10341;49.894;8.822;2022-08-21T04:17:10;7.73;;;5.63;;
20365;SDS011;10341;49.894;8.822;2022-08-21T04:22:30;8.25;;;6.00;;
20365;SDS011;10341;49.894;8.822;2022-08-21T04:27:49;9.48;;;6.95;;
20365;SDS011;10341;49.894;8.822;2022-08-21T04:33:08;10.02;;;6.82;;
20365;SDS011;10341;49.894;8.822;2022-08-21T04:38:27;8.95;;;6.25;;
20365;SDS011;10341;49.894;8.822;2022-08-21T04:43:46;9.57;;;6.07;;
20365;SDS011;10341;49.894;8.822;2022-08-21T04:49:05;7.50;;;5.25;;
20365;SDS011;10341;49.894;8.822;2022-08-21T04:54:24;11.73;;;6.80;;
20365;SDS011;10341;49.894;8.822;2022-08-21T04:59:47;9.63;;;6.40;;
20365;SDS011;10341;49.894;8.822;2022-08-21T05:05:09;9.18;;;5.95;;
20365;SDS011;10341;49.894;8.822;2022-08-21T05:15:50;8.57;;;6.18;;
20365;SDS011;10341;49.894;8.822;2022-08-21T05:21:09;9.05;;;6.53;;
20365;SDS011;10341;49.894;8.822;2022-08-21T05:26:28;7.97;;;5.03;;
20365;SDS011;10341;49.894;8.822;2022-08-21T05:31:48;8.77;;;6.22;;
20365;SDS011;10341;49.894;8.822;2022-08-21T05:37:09;11.32;;;6.55;;
20365;SDS011;10341;49.894;8.822;2022-08-21T05:42:31;10.52;;;7.53;;
20365;SDS011;10341;49.894;8.822;2022-08-21T05:47:50;11.77;;;7.38;;
20365;SDS011;10341;49.894;8.822;2022-08-21T05:53:09;10.52;;;7.43;;
20365;SDS011;10341;49.894;8.822;2022-08-21T05:58:29;9.55;;;6.47;;
20365;SDS011;10341;49.894;8.822;2022-08-21T06:03:51;10.27;;;6.53;;
20365;SDS011;10341;49.894;8.822;2022-08-21T06:09:11;9.47;;;6.77;;
20365;SDS011;10341;49.894;8.822;2022-08-21T06:14:30;9.45;;;7.03;;
20365;SDS011;10341;49.894;8.822;2022-08-21T06:19:52;9.68;;;6.28;;
20365;SDS011;10341;49.894;8.822;2022-08-21T06:25:11;10.57;;;7.03;;
20365;SDS011;10341;49.894;8.822;2022-08-21T06:30:31;9.43;;;6.80;;
20365;SDS011;10341;49.894;8.822;2022-08-21T06:35:50;9.38;;;6.18;;
20365;SDS011;10341;49.894;8.822;2022-08-21T06:41:10;7.87;;;5.40;;
20365;SDS011;10341;49.894;8.822;2022-08-21T06:46:29;9.35;;;5.18;;
20365;SDS011;10341;49.894;8.822;2022-08-21T06:57:09;8.00;;;4.53;;
20365;SDS011;10341;49.894;8.822;2022-08-21T07:02:28;6.15;;;4.22;;
20365;SDS011;10341;49.894;8.822;2022-08-21T07:07:48;9.60;;;4.30;;
20365;SDS011;10341;49.894;8.822;2022-08-21T07:13:07;6.32;;;4.30;;
20365;SDS011;10341;49.894;8.822;2022-08-21T07:18:26;6.65;;;3.97;;
20365;SDS011;10341;49.894;8.822;2022-08-21T07:23:48;6.40;;;4.18;;
20365;SDS011;10341;49.894;8.822;2022-08-21T07:29:09;7.63;;;4.80;;
20365;SDS011;10341;49.894;8.822;2022-08-21T07:34:28;7.78;;;4.93;;
20365;SDS011;10341;49.894;8.822;2022-08-21T07:39:47;7.03;;;4.90;;
20365;SDS011;10341;49.894;8.822;2022-08-21T07:50:27;8.70;;;5.53;;
20365;SDS011;10341;49.894;8.822;2022-08-21T07:55:47;7.78;;;5.40;;
20365;SDS011;10341;49.894;8.822;2022-08-21T08:01:06;7.30;;;5.60;;
20365;SDS011;10341;49.894;8.822;2022-08-21T08:06:25;10.57;;;5.68;;
20365;SDS011;10341;49.894;8.822;2022-08-21T08:11:44;6.13;;;4.32;;
20365;SDS011;10341;49.894;8.822;2022-08-21T08:17:03;6.72;;;4.80;;
20365;SDS011;10341;49.894;8.822;2022-08-21T08:22:22;7.32;;;4.13;;
20365;SDS011;10341;49.894;8.822;2022-08-21T08:27:42;4.70;;;3.72;;
20365;SDS011;10341;49.894;8.822;2022-08-21T08:33:01;5.93;;;3.28;;
20365;SDS011;10341;49.894;8.822;2022-08-21T08:38:21;4.35;;;2.92;;
20365;SDS011;10341;49.894;8.822;2022-08-21T08:43:42;7.50;;;3.70;;
20365;SDS011;10341;49.894;8.822;2022-08-21T08:49:09;5.75;;;2.90;;
20365;SDS011;10341;49.894;8.822;2022-08-21T08:54:43;4.03;;;2.20;;
20365;SDS011;10341;49.894;8.822;2022-08-21T09:00:08;3.67;;;2.83;;
20365;SDS011;10341;49.894;8.822;2022-08-21T09:05:41;3.42;;;2.58;;
20365;SDS011;10341;49.894;8.822;2022-08-21T09:28:26;6.25;;;3.30;;
20365;SDS011;10341;49.894;8.822;2022-08-21T09:33:45;6.25;;;3.20;;
20365;SDS011;10341;49.894;8.822;2022-08-21T09:39:04;5.03;;;3.30;;
20365;SDS011;10341;49.894;8.822;2022-08-21T09:44:25;5.03;;;2.80;;
20365;SDS011;10341;49.894;8.822;2022-08-21T09:49:47;4.43;;;2.70;;
20365;SDS011;10341;49.894;8.822;2022-08-21T09:55:06;4.32;;;2.75;;
20365;SDS011;10341;49.894;8.822;2022-08-21T10:01:01;3.80;;;2.40;;
20365;SDS011;10341;49.894;8.822;2022-08-21T10:06:24;3.92;;;2.03;;
20365;SDS011;10341;49.894;8.822;2022-08-21T10:12:14;3.40;;;2.10;;
20365;SDS011;10341;49.894;8.822;2022-08-21T10:56:40;3.83;;;1.80;;
20365;SDS011;10341;49.894;8.822;2022-08-21T11:02:15;3.63;;;2.03;;
20365;SDS011;10341;49.894;8.822;2022-08-21T11:07:45;6.20;;;2.42;;
20365;SDS011;10341;49.894;8.822;2022-08-21T11:13:31;4.32;;;2.10;;
20365;SDS011;10341;49.894;8.822;2022-08-21T11:25:09;2.85;;;2.00;;
20365;SDS011;10341;49.894;8.822;2022-08-21T11:30:58;3.67;;;1.80;;
20365;SDS011;10341;49.894;8.822;2022-08-21T11:36:23;3.03;;;1.80;;
20365;SDS011;10341;49.894;8.822;2022-08-21T11:41:47;2.88;;;1.95;;
20365;SDS011;10341;49.894;8.822;2022-08-21T11:53:33;3.58;;;1.92;;
20365;SDS011;10341;49.894;8.822;2022-08-21T11:58:58;4.05;;;2.10;;
20365;SDS011;10341;49.894;8.822;2022-08-21T12:04:25;3.22;;;1.88;;
20365;SDS011;10341;49.894;8.822;2022-08-21T12:09:55;4.88;;;2.13;;
20365;SDS011;10341;49.894;8.822;2022-08-21T12:20:44;3.67;;;2.20;;
20365;SDS011;10341;49.894;8.822;2022-08-21T12:26:23;3.80;;;2.08;;
20365;SDS011;10341;49.894;8.822;2022-08-21T12:31:52;4.47;;;2.13;;
20365;SDS011;10341;49.894;8.822;2022-08-21T12:37:16;3.58;;;2.15;;
20365;SDS011;10341;49.894;8.822;2022-08-21T12:42:44;3.72;;;2.00;;
20365;SDS011;10341;49.894;8.822;2022-08-21T12:53:57;3.28;;;2.35;;
20365;SDS011;10341;49.894;8.822;2022-08-21T12:59:18;2.78;;;1.98;;
20365;SDS011;10341;49.894;8.822;2022-08-21T13:04:39;6.20;;;2.38;;
20365;SDS011;10341;49.894;8.822;2022-08-21T13:10:02;2.65;;;1.65;;
20365;SDS011;10341;49.894;8.822;2022-08-21T13:15:42;4.00;;;2.22;;
20365;SDS011;10341;49.894;8.822;2022-08-21T13:21:04;4.22;;;2.20;;
20365;SDS011;10341;49.894;8.822;2022-08-21T13:26:23;3.20;;;2.08;;
20365;SDS011;10341;49.894;8.822;2022-08-21T13:31:57;3.97;;;1.80;;
20365;SDS011;10341;49.894;8.822;2022-08-21T13:37:26;3.50;;;2.08;;
20365;SDS011;10341;49.894;8.822;2022-08-21T13:42:47;3.80;;;2.03;;
20365;SDS011;10341;49.894;8.822;2022-08-21T13:48:07;5.20;;;1.90;;
20365;SDS011;10341;49.894;8.822;2022-08-21T13:53:31;3.58;;;2.10;;
20365;SDS011;10341;49.894;8.822;2022-08-21T13:59:00;3.10;;;1.83;;
20365;SDS011;10341;49.894;8.822;2022-08-21T14:04:22;3.72;;;1.90;;
20365;SDS011;10341;49.894;8.822;2022-08-21T14:09:45;2.83;;;1.80;;
20365;SDS011;10341;49.894;8.822;2022-08-21T14:15:05;3.28;;;1.98;;
20365;SDS011;10341;49.894;8.822;2022-08-21T14:20:34;3.25;;;1.67;;
20365;SDS011;10341;49.894;8.822;2022-08-21T14:25:57;3.70;;;1.92;;
20365;SDS011;10341;49.894;8.822;2022-08-21T14:31:21;6.88;;;2.15;;
20365;SDS011;10341;49.894;8.822;2022-08-21T14:36:40;3.53;;;2.10;;
20365;SDS011;10341;49.894;8.822;2022-08-21T14:41:59;2.80;;;1.95;;
20365;SDS011;10341;49.894;8.822;2022-08-21T14:47:19;2.58;;;1.90;;
20365;SDS011;10341;49.894;8.822;2022-08-21T14:57:58;6.03;;;2.00;;
20365;SDS011;10341;49.894;8.822;2022-08-21T15:03:19;2.95;;;1.70;;
20365;SDS011;10341;49.894;8.822;2022-08-21T15:08:40;3.58;;;1.75;;
20365;SDS011;10341;49.894;8.822;2022-08-21T15:14:00;4.20;;;1.90;;
20365;SDS011;10341;49.894;8.822;2022-08-21T15:19:21;3.67;;;1.83;;
20365;SDS011;10341;49.894;8.822;2022-08-21T15:24:41;2.35;;;1.60;;
20365;SDS011;10341;49.894;8.822;2022-08-21T15:30:01;2.40;;;1.63;;
20365;SDS011;10341;49.894;8.822;2022-08-21T15:35:23;2.80;;;1.73;;
20365;SDS011;10341;49.894;8.822;2022-08-21T15:40:42;3.90;;;2.00;;
20365;SDS011;10341;49.894;8.822;2022-08-21T15:46:03;3.63;;;1.60;;
20365;SDS011;10341;49.894;8.822;2022-08-21T15:51:24;3.67;;;2.10;;
20365;SDS011;10341;49.894;8.822;2022-08-21T15:56:44;3.55;;;1.77;;
20365;SDS011;10341;49.894;8.822;2022-08-21T16:02:12;3.25;;;2.13;;
20365;SDS011;10341;49.894;8.822;2022-08-21T16:07:44;3.40;;;1.90;;
20365;SDS011;10341;49.894;8.822;2022-08-21T16:13:06;3.38;;;1.90;;
20365;SDS011;10341;49.894;8.822;2022-08-21T16:18:30;4.03;;;2.08;;
20365;SDS011;10341;49.894;8.822;2022-08-21T16:23:50;3.13;;;1.70;;
20365;SDS011;10341;49.894;8.822;2022-08-21T16:29:09;3.80;;;1.73;;
20365;SDS011;10341;49.894;8.822;2022-08-21T16:34:29;3.45;;;2.15;;
20365;SDS011;10341;49.894;8.822;2022-08-21T16:39:48;3.05;;;1.67;;
20365;SDS011;10341;49.894;8.822;2022-08-21T16:45:09;3.60;;;2.30;;
20365;SDS011;10341;49.894;8.822;2022-08-21T16:50:34;2.97;;;1.80;;
20365;SDS011;10341;49.894;8.822;2022-08-21T16:55:55;4.72;;;2.08;;
20365;SDS011;10341;49.894;8.822;2022-08-21T17:01:16;3.33;;;1.98;;
20365;SDS011;10341;49.894;8.822;2022-08-21T17:06:38;4.95;;;2.08;;
20365;SDS011;10341;49.894;8.822;2022-08-21T17:11:58;3.58;;;1.63;;
20365;SDS011;10341;49.894;8.822;2022-08-21T17:22:36;2.15;;;1.95;;
20365;SDS011;10341;49.894;8.822;2022-08-21T17:27:55;2.00;;;1.52;;
20365;SDS011;10341;49.894;8.822;2022-08-21T17:33:16;3.15;;;1.92;;
20365;SDS011;10341;49.894;8.822;2022-08-21T17:38:36;5.57;;;2.10;;
20365;SDS011;10341;49.894;8.822;2022-08-21T17:43:55;2.90;;;2.10;;
20365;SDS011;10341;49.894;8.822;2022-08-21T17:49:15;3.15;;;2.13;;
20365;SDS011;10341;49.894;8.822;2022-08-21T17:54:35;3.60;;;2.00;;
20365;SDS011;10341;49.894;8.822;2022-08-21T17:59:55;3.03;;;2.15;;
20365;SDS011;10341;49.894;8.822;2022-08-21T18:05:14;5.27;;;2.40;;
20365;SDS011;10341;49.894;8.822;2022-08-21T18:10:33;4.18;;;2.63;;
20365;SDS011;10341;49.894;8.822;2022-08-21T18:15:53;3.05;;;2.17;;
20365;SDS011;10341;49.894;8.822;2022-08-21T18:21:14;4.28;;;2.38;;
20365;SDS011;10341;49.894;8.822;2022-08-21T18:26:34;2.88;;;2.00;;
20365;SDS011;10341;49.894;8.822;2022-08-21T18:31:56;7.95;;;2.50;;
20365;SDS011;10341;49.894;8.822;2022-08-21T18:37:15;6.90;;;2.40;;
20365;SDS011;10341;49.894;8.822;2022-08-21T18:42:36;7.77;;;2.63;;
20365;SDS011;10341;49.894;8.822;2022-08-21T18:47:58;5.30;;;2.42;;
20365;SDS011;10341;49.894;8.822;2022-08-21T18:53:19;5.80;;;2.50;;
20365;SDS011;10341;49.894;8.822;2022-08-21T18:58:39;5.75;;;3.90;;
20365;SDS011;10341;49.894;8.822;2022-08-21T19:04:00;4.93;;;3.10;;
20365;SDS011;10341;49.894;8.822;2022-08-21T19:09:20;3.60;;;2.35;;
20365;SDS011;10341;49.894;8.822;2022-08-21T19:14:39;5.43;;;2.28;;
20365;SDS011;10341;49.894;8.822;2022-08-21T19:20:00;3.92;;;2.40;;
20365;SDS011;10341;49.894;8.822;2022-08-21T19:25:23;3.83;;;3.00;;
20365;SDS011;10341;49.894;8.822;2022-08-21T19:30:45;3.90;;;2.50;;
20365;SDS011;10341;49.894;8.822;2022-08-21T19:36:12;4.90;;;2.67;;
20365;SDS011;10341;49.894;8.822;2022-08-21T19:41:33;4.68;;;3.65;;
20365;SDS011;10341;49.894;8.822;2022-08-21T19:46:56;7.80;;;3.60;;
20365;SDS011;10341;49.894;8.822;2022-08-21T19:52:16;5.47;;;2.72;;
20365;SDS011;10341;49.894;8.822;2022-08-21T19:57:36;3.20;;;2.37;;
20365;SDS011;10341;49.894;8.822;2022-08-21T20:02:56;4.32;;;2.85;;
20365;SDS011;10341;49.894;8.822;2022-08-21T20:08:15;3.67;;;2.85;;
20365;SDS011;10341;49.894;8.822;2022-08-21T20:13:34;5.18;;;3.08;;
20365;SDS011;10341;49.894;8.822;2022-08-21T20:18:54;4.10;;;2.80;;
20365;SDS011;10341;49.894;8.822;2022-08-21T20:24:14;4.82;;;3.67;;
20365;SDS011;10341;49.894;8.822;2022-08-21T20:29:35;4.70;;;2.90;;
20365;SDS011;10341;49.894;8.822;2022-08-21T20:34:56;4.55;;;3.00;;
20365;SDS011;10341;49.894;8.822;2022-08-21T20:40:16;3.77;;;2.43;;
20365;SDS011;10341;49.894;8.822;2022-08-21T20:45:36;4.87;;;2.83;;
20365;SDS011;10341;49.894;8.822;2022-08-21T20:56:42;7.05;;;2.90;;
20365;SDS011;10341;49.894;8.822;2022-08-21T21:02:38;5.57;;;3.58;;
20365;SDS011;10341;49.894;8.822;2022-08-21T21:08:39;5.28;;;3.20;;
20365;SDS011;10341;49.894;8.822;2022-08-21T21:14:06;4.30;;;2.80;;
20365;SDS011;10341;49.894;8.822;2022-08-21T21:19:45;3.97;;;2.60;;
20365;SDS011;10341;49.894;8.822;2022-08-21T21:25:12;3.42;;;2.72;;
20365;SDS011;10341;49.894;8.822;2022-08-21T21:30:40;4.30;;;2.90;;
20365;SDS011;10341;49.894;8.822;2022-08-21T21:36:05;7.00;;;3.88;;
20365;SDS011;10341;49.894;8.822;2022-08-21T21:41:36;5.53;;;3.45;;
20365;SDS011;10341;49.894;8.822;2022-08-21T21:47:03;5.40;;;3.20;;
20365;SDS011;10341;49.894;8.822;2022-08-21T21:52:46;7.20;;;3.17;;
20365;SDS011;10341;49.894;8.822;2022-08-21T21:58:17;4.63;;;3.00;;
20365;SDS011;10341;49.894;8.822;2022-08-21T22:15:00;6.32;;;3.80;;
20365;SDS011;10341;49.894;8.822;2022-08-21T22:20:26;7.63;;;4.47;;
20365;SDS011;10341;49.894;8.822;2022-08-21T22:25:55;7.22;;;3.90;;
20365;SDS011;10341;49.894;8.822;2022-08-21T22:31:22;5.90;;;3.67;;
20365;SDS011;10341;49.894;8.822;2022-08-21T22:36:45;6.30;;;3.65;;
20365;SDS011;10341;49.894;8.822;2022-08-21T22:42:12;5.43;;;3.58;;
20365;SDS011;10341;49.894;8.822;2022-08-21T22:47:42;4.30;;;3.28;;
20365;SDS011;10341;49.894;8.822;2022-08-21T22:53:06;4.47;;;3.55;;
20365;SDS011;10341;49.894;8.822;2022-08-21T22:58:28;8.10;;;5.00;;
20365;SDS011;10341;49.894;8.822;2022-08-21T23:03:54;6.20;;;4.55;;
20365;SDS011;10341;49.894;8.822;2022-08-21T23:15:10;5.05;;;3.92;;
20365;SDS011;10341;49.894;8.822;2022-08-21T23:26:02;6.57;;;3.70;;
20365;SDS011;10341;49.894;8.822;2022-08-21T23:37:13;7.00;;;3.78;;
20365;SDS011;10341;49.894;8.822;2022-08-21T23:59:56;4.95;;;3.67;;
